sensor_id;sensor_type;location;lat;lon;timestamp;P1;durP1;ratioP1;P2;durP2;ratioP2
46116;SDS011;32591;48.102;11.772;2022-11-21T00:00:38;0.82;;;0.60;;
46116;SDS011;32591;48.102;11.772;2022-11-21T00:03:05;0.65;;;0.50;;
46116;SDS011;32591;48.102;11.772;2022-11-21T00:08:04;0.32;;;0.32;;
46116;SDS011;32591;48.102;11.772;2022-11-21T00:10:32;0.93;;;0.68;;
46116;SDS011;32591;48.102;11.772;2022-11-21T00:12:59;1.05;;;0.60;;
46116;SDS011;32591;48.102;11.772;2022-11-21T00:17:53;0.83;;;0.50;;
46116;SDS011;32591;48.102;11.772;2022-11-21T00:20:20;0.65;;;0.32;;
46116;SDS011;32591;48.102;11.772;2022-11-21T00:22:49;0.80;;;0.70;;
46116;SDS011;32591;48.102;11.772;2022-11-21T00:25:16;1.23;;;0.60;;
46116;SDS011;32591;48.102;11.772;2022-11-21T00:27:43;0.70;;;0.43;;
46116;SDS011;32591;48.102;11.772;2022-11-21T00:32:38;0.43;;;0.43;;
46116;SDS011;32591;48.102;11.772;2022-11-21T00:35:05;1.13;;;0.65;;
46116;SDS011;32591;48.102;11.772;2022-11-21T00:37:33;0.82;;;0.40;;
46116;SDS011;32591;48.102;11.772;2022-11-21T00:40:02;1.38;;;0.50;;
46116;SDS011;32591;48.102;11.772;2022-11-21T00:42:30;2.05;;;0.50;;
46116;SDS011;32591;48.102;11.772;2022-11-21T00:44:57;0.30;;;0.30;;
46116;SDS011;32591;48.102;11.772;2022-11-21T00:47:24;0.50;;;0.50;;
46116;SDS011;32591;48.102;11.772;2022-11-21T00:49:51;0.63;;;0.40;;
46116;SDS011;32591;48.102;11.772;2022-11-21T00:54:45;0.50;;;0.50;;
46116;SDS011;32591;48.102;11.772;2022-11-21T00:59:40;0.30;;;0.30;;
46116;SDS011;32591;48.102;11.772;2022-11-21T01:04:34;0.98;;;0.50;;
46116;SDS011;32591;48.102;11.772;2022-11-21T01:07:01;0.40;;;0.40;;
46116;SDS011;32591;48.102;11.772;2022-11-21T01:09:28;1.10;;;0.52;;
46116;SDS011;32591;48.102;11.772;2022-11-21T01:11:56;0.50;;;0.35;;
46116;SDS011;32591;48.102;11.772;2022-11-21T01:14:24;0.82;;;0.50;;
46116;SDS011;32591;48.102;11.772;2022-11-21T01:16:52;0.43;;;0.20;;
46116;SDS011;32591;48.102;11.772;2022-11-21T01:21:46;0.30;;;0.30;;
46116;SDS011;32591;48.102;11.772;2022-11-21T01:26:40;0.55;;;0.47;;
46116;SDS011;32591;48.102;11.772;2022-11-21T01:29:07;0.95;;;0.52;;
46116;SDS011;32591;48.102;11.772;2022-11-21T01:31:35;0.68;;;0.50;;
46116;SDS011;32591;48.102;11.772;2022-11-21T01:34:02;0.65;;;0.40;;
46116;SDS011;32591;48.102;11.772;2022-11-21T01:38:58;1.23;;;0.68;;
46116;SDS011;32591;48.102;11.772;2022-11-21T01:41:27;0.75;;;0.50;;
46116;SDS011;32591;48.102;11.772;2022-11-21T01:43:57;0.52;;;0.40;;
46116;SDS011;32591;48.102;11.772;2022-11-21T01:46:25;0.43;;;0.40;;
46116;SDS011;32591;48.102;11.772;2022-11-21T01:48:55;0.80;;;0.80;;
46116;SDS011;32591;48.102;11.772;2022-11-21T01:51:29;0.55;;;0.55;;
46116;SDS011;32591;48.102;11.772;2022-11-21T01:54:00;0.40;;;0.40;;
46116;SDS011;32591;48.102;11.772;2022-11-21T01:56:32;0.45;;;0.30;;
46116;SDS011;32591;48.102;11.772;2022-11-21T01:59:06;1.40;;;0.70;;
46116;SDS011;32591;48.102;11.772;2022-11-21T02:01:36;0.65;;;0.32;;
46116;SDS011;32591;48.102;11.772;2022-11-21T02:04:05;0.65;;;0.50;;
46116;SDS011;32591;48.102;11.772;2022-11-21T02:06:33;1.58;;;0.50;;
46116;SDS011;32591;48.102;11.772;2022-11-21T02:09:02;0.57;;;0.45;;
46116;SDS011;32591;48.102;11.772;2022-11-21T02:11:31;0.40;;;0.40;;
46116;SDS011;32591;48.102;11.772;2022-11-21T02:14:03;1.23;;;0.55;;
46116;SDS011;32591;48.102;11.772;2022-11-21T02:16:30;2.10;;;0.80;;
46116;SDS011;32591;48.102;11.772;2022-11-21T02:18:58;1.23;;;0.70;;
46116;SDS011;32591;48.102;11.772;2022-11-21T02:21:30;0.52;;;0.40;;
46116;SDS011;32591;48.102;11.772;2022-11-21T02:24:08;0.65;;;0.57;;
46116;SDS011;32591;48.102;11.772;2022-11-21T02:26:44;0.55;;;0.40;;
46116;SDS011;32591;48.102;11.772;2022-11-21T02:29:13;0.95;;;0.40;;
46116;SDS011;32591;48.102;11.772;2022-11-21T02:31:41;2.75;;;0.82;;
46116;SDS011;32591;48.102;11.772;2022-11-21T02:34:08;1.40;;;0.60;;
46116;SDS011;32591;48.102;11.772;2022-11-21T02:36:39;0.73;;;0.60;;
46116;SDS011;32591;48.102;11.772;2022-11-21T02:39:09;2.72;;;0.65;;
46116;SDS011;32591;48.102;11.772;2022-11-21T02:41:45;1.55;;;0.70;;
46116;SDS011;32591;48.102;11.772;2022-11-21T02:46:50;1.83;;;0.63;;
46116;SDS011;32591;48.102;11.772;2022-11-21T02:49:20;1.55;;;0.70;;
46116;SDS011;32591;48.102;11.772;2022-11-21T02:51:57;1.15;;;0.60;;
46116;SDS011;32591;48.102;11.772;2022-11-21T02:54:24;1.50;;;0.60;;
46116;SDS011;32591;48.102;11.772;2022-11-21T02:59:19;0.60;;;0.60;;
46116;SDS011;32591;48.102;11.772;2022-11-21T03:04:13;1.02;;;0.70;;
46116;SDS011;32591;48.102;11.772;2022-11-21T03:09:07;1.80;;;0.80;;
46116;SDS011;32591;48.102;11.772;2022-11-21T03:14:02;1.05;;;0.57;;
46116;SDS011;32591;48.102;11.772;2022-11-21T03:16:29;4.22;;;0.57;;
46116;SDS011;32591;48.102;11.772;2022-11-21T03:18:56;5.28;;;0.55;;
46116;SDS011;32591;48.102;11.772;2022-11-21T03:21:23;1.23;;;0.60;;
46116;SDS011;32591;48.102;11.772;2022-11-21T03:23:50;2.90;;;0.75;;
46116;SDS011;32591;48.102;11.772;2022-11-21T03:26:17;0.80;;;0.60;;
46116;SDS011;32591;48.102;11.772;2022-11-21T03:28:44;2.65;;;0.45;;
46116;SDS011;32591;48.102;11.772;2022-11-21T03:33:39;1.60;;;0.90;;
46116;SDS011;32591;48.102;11.772;2022-11-21T03:38:33;2.90;;;0.82;;
46116;SDS011;32591;48.102;11.772;2022-11-21T03:41:04;3.30;;;0.93;;
46116;SDS011;32591;48.102;11.772;2022-11-21T03:43:52;4.35;;;0.70;;
46116;SDS011;32591;48.102;11.772;2022-11-21T03:48:47;2.25;;;0.68;;
46116;SDS011;32591;48.102;11.772;2022-11-21T03:51:14;1.25;;;0.50;;
46116;SDS011;32591;48.102;11.772;2022-11-21T03:53:41;0.68;;;0.52;;
46116;SDS011;32591;48.102;11.772;2022-11-21T03:58:35;0.93;;;0.55;;
46116;SDS011;32591;48.102;11.772;2022-11-21T04:01:02;1.60;;;0.88;;
46116;SDS011;32591;48.102;11.772;2022-11-21T04:03:31;2.80;;;0.90;;
46116;SDS011;32591;48.102;11.772;2022-11-21T04:05:59;2.08;;;0.60;;
46116;SDS011;32591;48.102;11.772;2022-11-21T04:08:26;2.17;;;0.75;;
46116;SDS011;32591;48.102;11.772;2022-11-21T04:10:53;1.38;;;0.80;;
46116;SDS011;32591;48.102;11.772;2022-11-21T04:13:20;2.90;;;0.80;;
46116;SDS011;32591;48.102;11.772;2022-11-21T04:15:47;0.75;;;0.60;;
46116;SDS011;32591;48.102;11.772;2022-11-21T04:18:15;0.57;;;0.43;;
46116;SDS011;32591;48.102;11.772;2022-11-21T04:20:43;3.35;;;0.73;;
46116;SDS011;32591;48.102;11.772;2022-11-21T04:23:10;1.23;;;0.60;;
46116;SDS011;32591;48.102;11.772;2022-11-21T04:25:38;3.22;;;0.73;;
46116;SDS011;32591;48.102;11.772;2022-11-21T04:28:05;0.80;;;0.52;;
46116;SDS011;32591;48.102;11.772;2022-11-21T04:30:33;1.95;;;0.80;;
46116;SDS011;32591;48.102;11.772;2022-11-21T04:33:00;3.22;;;0.55;;
46116;SDS011;32591;48.102;11.772;2022-11-21T04:37:55;1.80;;;0.80;;
46116;SDS011;32591;48.102;11.772;2022-11-21T04:40:22;2.25;;;0.80;;
46116;SDS011;32591;48.102;11.772;2022-11-21T04:42:49;0.98;;;0.50;;
46116;SDS011;32591;48.102;11.772;2022-11-21T04:45:16;0.40;;;0.30;;
46116;SDS011;32591;48.102;11.772;2022-11-21T04:47:43;1.35;;;0.60;;
46116;SDS011;32591;48.102;11.772;2022-11-21T04:50:13;2.42;;;0.82;;
46116;SDS011;32591;48.102;11.772;2022-11-21T04:52:41;0.85;;;0.40;;
46116;SDS011;32591;48.102;11.772;2022-11-21T04:55:16;1.92;;;0.90;;
46116;SDS011;32591;48.102;11.772;2022-11-21T04:57:43;2.35;;;0.68;;
46116;SDS011;32591;48.102;11.772;2022-11-21T05:00:11;2.88;;;0.88;;
46116;SDS011;32591;48.102;11.772;2022-11-21T05:02:40;5.82;;;1.17;;
46116;SDS011;32591;48.102;11.772;2022-11-21T05:05:08;3.70;;;1.08;;
46116;SDS011;32591;48.102;11.772;2022-11-21T05:07:36;3.47;;;0.77;;
46116;SDS011;32591;48.102;11.772;2022-11-21T05:10:04;1.17;;;0.52;;
46116;SDS011;32591;48.102;11.772;2022-11-21T05:12:33;0.55;;;0.40;;
46116;SDS011;32591;48.102;11.772;2022-11-21T05:15:18;4.38;;;0.75;;
46116;SDS011;32591;48.102;11.772;2022-11-21T05:17:45;2.97;;;0.80;;
46116;SDS011;32591;48.102;11.772;2022-11-21T05:20:13;2.22;;;0.60;;
46116;SDS011;32591;48.102;11.772;2022-11-21T05:22:40;2.20;;;0.70;;
46116;SDS011;32591;48.102;11.772;2022-11-21T05:25:09;3.00;;;0.47;;
46116;SDS011;32591;48.102;11.772;2022-11-21T05:27:38;2.67;;;0.55;;
46116;SDS011;32591;48.102;11.772;2022-11-21T05:30:05;5.28;;;1.13;;
46116;SDS011;32591;48.102;11.772;2022-11-21T05:32:34;2.83;;;0.70;;
46116;SDS011;32591;48.102;11.772;2022-11-21T05:37:28;0.60;;;0.43;;
46116;SDS011;32591;48.102;11.772;2022-11-21T05:42:21;0.82;;;0.30;;
46116;SDS011;32591;48.102;11.772;2022-11-21T05:45:04;0.75;;;0.50;;
46116;SDS011;32591;48.102;11.772;2022-11-21T05:47:32;1.77;;;0.38;;
46116;SDS011;32591;48.102;11.772;2022-11-21T05:52:26;2.45;;;0.68;;
46116;SDS011;32591;48.102;11.772;2022-11-21T05:54:53;1.90;;;0.85;;
46116;SDS011;32591;48.102;11.772;2022-11-21T05:57:20;2.33;;;0.52;;
46116;SDS011;32591;48.102;11.772;2022-11-21T05:59:47;2.30;;;0.98;;
46116;SDS011;32591;48.102;11.772;2022-11-21T06:02:16;1.10;;;0.63;;
46116;SDS011;32591;48.102;11.772;2022-11-21T06:05:00;2.25;;;0.73;;
46116;SDS011;32591;48.102;11.772;2022-11-21T06:07:27;1.67;;;0.50;;
46116;SDS011;32591;48.102;11.772;2022-11-21T06:09:54;2.35;;;0.75;;
46116;SDS011;32591;48.102;11.772;2022-11-21T06:12:22;1.55;;;0.73;;
46116;SDS011;32591;48.102;11.772;2022-11-21T06:14:49;2.95;;;0.77;;
46116;SDS011;32591;48.102;11.772;2022-11-21T06:19:44;4.57;;;1.20;;
46116;SDS011;32591;48.102;11.772;2022-11-21T06:24:37;2.60;;;0.80;;
46116;SDS011;32591;48.102;11.772;2022-11-21T06:29:31;2.05;;;0.45;;
46116;SDS011;32591;48.102;11.772;2022-11-21T06:31:58;1.10;;;0.50;;
46116;SDS011;32591;48.102;11.772;2022-11-21T06:34:27;1.08;;;0.70;;
46116;SDS011;32591;48.102;11.772;2022-11-21T06:36:53;1.25;;;0.75;;
46116;SDS011;32591;48.102;11.772;2022-11-21T06:39:20;0.95;;;0.60;;
46116;SDS011;32591;48.102;11.772;2022-11-21T06:44:15;3.20;;;0.60;;
46116;SDS011;32591;48.102;11.772;2022-11-21T06:46:42;7.72;;;0.73;;
46116;SDS011;32591;48.102;11.772;2022-11-21T06:49:10;1.10;;;0.82;;
46116;SDS011;32591;48.102;11.772;2022-11-21T06:51:38;1.15;;;0.60;;
46116;SDS011;32591;48.102;11.772;2022-11-21T06:54:05;0.80;;;0.70;;
46116;SDS011;32591;48.102;11.772;2022-11-21T06:58:59;1.15;;;0.50;;
46116;SDS011;32591;48.102;11.772;2022-11-21T07:03:53;1.65;;;1.55;;
46116;SDS011;32591;48.102;11.772;2022-11-21T07:06:20;0.45;;;0.43;;
46116;SDS011;32591;48.102;11.772;2022-11-21T07:08:50;0.82;;;0.40;;
46116;SDS011;32591;48.102;11.772;2022-11-21T07:11:18;4.70;;;1.20;;
46116;SDS011;32591;48.102;11.772;2022-11-21T07:13:45;1.83;;;0.93;;
46116;SDS011;32591;48.102;11.772;2022-11-21T07:16:11;0.95;;;0.77;;
46116;SDS011;32591;48.102;11.772;2022-11-21T07:18:39;1.25;;;0.70;;
46116;SDS011;32591;48.102;11.772;2022-11-21T07:21:07;0.80;;;0.30;;
46116;SDS011;32591;48.102;11.772;2022-11-21T07:23:34;0.60;;;0.60;;
46116;SDS011;32591;48.102;11.772;2022-11-21T07:26:03;1.90;;;0.30;;
46116;SDS011;32591;48.102;11.772;2022-11-21T07:28:32;0.50;;;0.50;;
46116;SDS011;32591;48.102;11.772;2022-11-21T07:30:59;1.10;;;0.50;;
46116;SDS011;32591;48.102;11.772;2022-11-21T07:33:28;2.13;;;0.50;;
46116;SDS011;32591;48.102;11.772;2022-11-21T07:35:55;0.60;;;0.38;;
46116;SDS011;32591;48.102;11.772;2022-11-21T07:38:23;0.43;;;0.40;;
46116;SDS011;32591;48.102;11.772;2022-11-21T07:40:51;2.90;;;1.33;;
46116;SDS011;32591;48.102;11.772;2022-11-21T07:43:20;0.30;;;0.30;;
46116;SDS011;32591;48.102;11.772;2022-11-21T07:45:47;0.52;;;0.32;;
46116;SDS011;32591;48.102;11.772;2022-11-21T07:48:14;1.20;;;0.55;;
46116;SDS011;32591;48.102;11.772;2022-11-21T07:50:41;1.13;;;0.30;;
46116;SDS011;32591;48.102;11.772;2022-11-21T07:55:36;0.77;;;0.63;;
46116;SDS011;32591;48.102;11.772;2022-11-21T07:58:03;1.15;;;0.65;;
46116;SDS011;32591;48.102;11.772;2022-11-21T08:00:34;0.45;;;0.28;;
46116;SDS011;32591;48.102;11.772;2022-11-21T08:03:04;0.95;;;0.38;;
46116;SDS011;32591;48.102;11.772;2022-11-21T08:05:34;0.43;;;0.30;;
46116;SDS011;32591;48.102;11.772;2022-11-21T08:08:02;1.30;;;0.57;;
46116;SDS011;32591;48.102;11.772;2022-11-21T08:10:30;0.55;;;0.40;;
46116;SDS011;32591;48.102;11.772;2022-11-21T08:12:57;0.50;;;0.30;;
46116;SDS011;32591;48.102;11.772;2022-11-21T08:15:24;0.80;;;0.50;;
46116;SDS011;32591;48.102;11.772;2022-11-21T08:17:53;1.73;;;0.30;;
46116;SDS011;32591;48.102;11.772;2022-11-21T08:20:20;0.50;;;0.20;;
46116;SDS011;32591;48.102;11.772;2022-11-21T08:25:14;0.38;;;0.38;;
46116;SDS011;32591;48.102;11.772;2022-11-21T08:27:41;2.95;;;1.40;;
46116;SDS011;32591;48.102;11.772;2022-11-21T08:30:09;1.33;;;0.70;;
46116;SDS011;32591;48.102;11.772;2022-11-21T08:32:38;1.27;;;0.93;;
46116;SDS011;32591;48.102;11.772;2022-11-21T08:35:06;2.28;;;1.10;;
46116;SDS011;32591;48.102;11.772;2022-11-21T08:37:34;0.95;;;0.70;;
46116;SDS011;32591;48.102;11.772;2022-11-21T08:42:27;0.60;;;0.43;;
46116;SDS011;32591;48.102;11.772;2022-11-21T08:44:54;0.93;;;0.55;;
46116;SDS011;32591;48.102;11.772;2022-11-21T08:47:21;1.38;;;0.80;;
46116;SDS011;32591;48.102;11.772;2022-11-21T08:49:48;0.73;;;0.43;;
46116;SDS011;32591;48.102;11.772;2022-11-21T08:54:44;0.88;;;0.50;;
46116;SDS011;32591;48.102;11.772;2022-11-21T08:57:11;0.30;;;0.30;;
46116;SDS011;32591;48.102;11.772;2022-11-21T08:59:38;1.02;;;0.70;;
46116;SDS011;32591;48.102;11.772;2022-11-21T09:02:05;5.07;;;0.73;;
46116;SDS011;32591;48.102;11.772;2022-11-21T09:04:35;0.50;;;0.50;;
46116;SDS011;32591;48.102;11.772;2022-11-21T09:07:02;0.30;;;0.30;;
46116;SDS011;32591;48.102;11.772;2022-11-21T09:09:31;1.45;;;0.50;;
46116;SDS011;32591;48.102;11.772;2022-11-21T09:11:58;1.25;;;0.52;;
46116;SDS011;32591;48.102;11.772;2022-11-21T09:14:26;3.47;;;1.92;;
46116;SDS011;32591;48.102;11.772;2022-11-21T09:17:11;1.40;;;0.68;;
46116;SDS011;32591;48.102;11.772;2022-11-21T09:19:56;4.63;;;0.60;;
46116;SDS011;32591;48.102;11.772;2022-11-21T09:22:23;1.33;;;0.57;;
46116;SDS011;32591;48.102;11.772;2022-11-21T09:24:52;1.60;;;0.70;;
46116;SDS011;32591;48.102;11.772;2022-11-21T09:27:19;0.80;;;0.60;;
46116;SDS011;32591;48.102;11.772;2022-11-21T09:29:46;1.05;;;0.75;;
46116;SDS011;32591;48.102;11.772;2022-11-21T09:32:13;0.82;;;0.50;;
46116;SDS011;32591;48.102;11.772;2022-11-21T09:34:40;1.02;;;0.63;;
46116;SDS011;32591;48.102;11.772;2022-11-21T09:37:08;2.75;;;0.70;;
46116;SDS011;32591;48.102;11.772;2022-11-21T09:39:38;2.33;;;0.50;;
46116;SDS011;32591;48.102;11.772;2022-11-21T09:42:11;2.58;;;0.70;;
46116;SDS011;32591;48.102;11.772;2022-11-21T09:45:04;2.78;;;1.00;;
46116;SDS011;32591;48.102;11.772;2022-11-21T09:47:34;1.92;;;0.70;;
46116;SDS011;32591;48.102;11.772;2022-11-21T09:50:04;1.95;;;0.80;;
46116;SDS011;32591;48.102;11.772;2022-11-21T09:52:45;2.92;;;0.75;;
46116;SDS011;32591;48.102;11.772;2022-11-21T09:55:20;1.35;;;0.60;;
46116;SDS011;32591;48.102;11.772;2022-11-21T09:57:54;4.40;;;0.70;;
46116;SDS011;32591;48.102;11.772;2022-11-21T10:00:22;1.83;;;0.50;;
46116;SDS011;32591;48.102;11.772;2022-11-21T10:02:50;1.95;;;0.73;;
46116;SDS011;32591;48.102;11.772;2022-11-21T10:05:19;1.25;;;0.60;;
46116;SDS011;32591;48.102;11.772;2022-11-21T10:07:57;2.55;;;0.75;;
46116;SDS011;32591;48.102;11.772;2022-11-21T10:10:37;1.08;;;0.80;;
46116;SDS011;32591;48.102;11.772;2022-11-21T10:13:21;4.25;;;0.65;;
46116;SDS011;32591;48.102;11.772;2022-11-21T10:16:05;1.58;;;0.55;;
46116;SDS011;32591;48.102;11.772;2022-11-21T10:18:47;0.98;;;0.73;;
46116;SDS011;32591;48.102;11.772;2022-11-21T10:24:45;1.10;;;0.90;;
46116;SDS011;32591;48.102;11.772;2022-11-21T10:27:24;1.42;;;0.55;;
46116;SDS011;32591;48.102;11.772;2022-11-21T10:30:00;2.58;;;0.70;;
46116;SDS011;32591;48.102;11.772;2022-11-21T10:32:30;3.33;;;1.35;;
46116;SDS011;32591;48.102;11.772;2022-11-21T10:35:10;2.80;;;1.05;;
46116;SDS011;32591;48.102;11.772;2022-11-21T10:37:44;5.97;;;1.83;;
46116;SDS011;32591;48.102;11.772;2022-11-21T10:43:02;1.65;;;0.55;;
46116;SDS011;32591;48.102;11.772;2022-11-21T10:45:53;1.27;;;0.70;;
46116;SDS011;32591;48.102;11.772;2022-11-21T10:48:20;2.42;;;0.63;;
46116;SDS011;32591;48.102;11.772;2022-11-21T10:50:51;2.88;;;1.23;;
46116;SDS011;32591;48.102;11.772;2022-11-21T10:53:31;1.13;;;0.63;;
46116;SDS011;32591;48.102;11.772;2022-11-21T10:56:16;1.33;;;0.68;;
46116;SDS011;32591;48.102;11.772;2022-11-21T10:58:47;2.42;;;1.17;;
46116;SDS011;32591;48.102;11.772;2022-11-21T11:01:20;2.55;;;0.95;;
46116;SDS011;32591;48.102;11.772;2022-11-21T11:04:03;2.97;;;1.67;;
46116;SDS011;32591;48.102;11.772;2022-11-21T11:06:43;3.53;;;1.77;;
46116;SDS011;32591;48.102;11.772;2022-11-21T11:09:22;3.20;;;1.10;;
46116;SDS011;32591;48.102;11.772;2022-11-21T11:14:48;3.08;;;1.67;;
46116;SDS011;32591;48.102;11.772;2022-11-21T11:17:26;2.63;;;1.27;;
46116;SDS011;32591;48.102;11.772;2022-11-21T11:19:59;3.95;;;1.63;;
46116;SDS011;32591;48.102;11.772;2022-11-21T11:22:29;3.92;;;1.70;;
46116;SDS011;32591;48.102;11.772;2022-11-21T11:24:56;5.45;;;2.03;;
46116;SDS011;32591;48.102;11.772;2022-11-21T11:27:27;2.10;;;1.00;;
46116;SDS011;32591;48.102;11.772;2022-11-21T11:29:54;6.97;;;1.65;;
46116;SDS011;32591;48.102;11.772;2022-11-21T11:32:21;1.95;;;1.10;;
46116;SDS011;32591;48.102;11.772;2022-11-21T11:34:54;2.25;;;1.45;;
46116;SDS011;32591;48.102;11.772;2022-11-21T11:37:27;2.42;;;1.27;;
46116;SDS011;32591;48.102;11.772;2022-11-21T11:40:04;3.17;;;1.30;;
46116;SDS011;32591;48.102;11.772;2022-11-21T11:42:47;2.17;;;1.05;;
46116;SDS011;32591;48.102;11.772;2022-11-21T11:48:47;2.15;;;1.05;;
46116;SDS011;32591;48.102;11.772;2022-11-21T11:51:19;3.42;;;1.40;;
46116;SDS011;32591;48.102;11.772;2022-11-21T11:53:52;5.40;;;2.35;;
46116;SDS011;32591;48.102;11.772;2022-11-21T11:56:23;1.45;;;0.73;;
46116;SDS011;32591;48.102;11.772;2022-11-21T11:58:54;3.92;;;0.70;;
46116;SDS011;32591;48.102;11.772;2022-11-21T12:01:37;2.50;;;0.98;;
46116;SDS011;32591;48.102;11.772;2022-11-21T12:04:10;4.47;;;1.20;;
46116;SDS011;32591;48.102;11.772;2022-11-21T12:06:43;4.60;;;1.08;;
46116;SDS011;32591;48.102;11.772;2022-11-21T12:09:17;1.92;;;0.90;;
46116;SDS011;32591;48.102;11.772;2022-11-21T12:11:53;3.95;;;1.13;;
46116;SDS011;32591;48.102;11.772;2022-11-21T12:14:40;3.70;;;1.10;;
46116;SDS011;32591;48.102;11.772;2022-11-21T12:17:37;4.32;;;1.05;;
46116;SDS011;32591;48.102;11.772;2022-11-21T12:20:13;1.88;;;0.93;;
46116;SDS011;32591;48.102;11.772;2022-11-21T12:22:47;3.42;;;1.08;;
46116;SDS011;32591;48.102;11.772;2022-11-21T12:25:18;1.75;;;1.05;;
46116;SDS011;32591;48.102;11.772;2022-11-21T12:27:51;1.80;;;0.80;;
46116;SDS011;32591;48.102;11.772;2022-11-21T12:30:26;1.77;;;0.70;;
46116;SDS011;32591;48.102;11.772;2022-11-21T12:33:25;1.85;;;0.75;;
46116;SDS011;32591;48.102;11.772;2022-11-21T12:36:02;2.55;;;1.00;;
46116;SDS011;32591;48.102;11.772;2022-11-21T12:38:43;2.33;;;1.00;;
46116;SDS011;32591;48.102;11.772;2022-11-21T12:41:26;2.13;;;0.88;;
46116;SDS011;32591;48.102;11.772;2022-11-21T12:44:22;2.05;;;0.80;;
46116;SDS011;32591;48.102;11.772;2022-11-21T12:47:08;5.95;;;1.02;;
46116;SDS011;32591;48.102;11.772;2022-11-21T12:49:51;1.35;;;0.70;;
46116;SDS011;32591;48.102;11.772;2022-11-21T12:52:46;5.78;;;1.02;;
46116;SDS011;32591;48.102;11.772;2022-11-21T12:55:36;1.08;;;0.70;;
46116;SDS011;32591;48.102;11.772;2022-11-21T12:58:07;2.55;;;1.08;;
46116;SDS011;32591;48.102;11.772;2022-11-21T13:00:50;1.20;;;0.75;;
46116;SDS011;32591;48.102;11.772;2022-11-21T13:03:37;4.07;;;0.90;;
46116;SDS011;32591;48.102;11.772;2022-11-21T13:06:13;2.90;;;0.85;;
46116;SDS011;32591;48.102;11.772;2022-11-21T13:08:45;2.38;;;1.02;;
46116;SDS011;32591;48.102;11.772;2022-11-21T13:11:20;1.40;;;0.93;;
46116;SDS011;32591;48.102;11.772;2022-11-21T13:14:15;1.83;;;0.67;;
46116;SDS011;32591;48.102;11.772;2022-11-21T13:16:49;2.00;;;0.50;;
46116;SDS011;32591;48.102;11.772;2022-11-21T13:19:34;2.55;;;0.50;;
46116;SDS011;32591;48.102;11.772;2022-11-21T13:25:16;3.60;;;0.52;;
46116;SDS011;32591;48.102;11.772;2022-11-21T13:31:26;2.08;;;0.68;;
46116;SDS011;32591;48.102;11.772;2022-11-21T13:33:55;1.98;;;0.82;;
46116;SDS011;32591;48.102;11.772;2022-11-21T13:36:41;2.05;;;0.68;;
46116;SDS011;32591;48.102;11.772;2022-11-21T13:42:01;1.25;;;0.63;;
46116;SDS011;32591;48.102;11.772;2022-11-21T13:44:53;2.85;;;0.77;;
46116;SDS011;32591;48.102;11.772;2022-11-21T13:50:33;2.10;;;1.20;;
46116;SDS011;32591;48.102;11.772;2022-11-21T13:53:44;2.60;;;1.02;;
46116;SDS011;32591;48.102;11.772;2022-11-21T13:56:34;5.30;;;0.63;;
46116;SDS011;32591;48.102;11.772;2022-11-21T13:59:09;2.45;;;1.10;;
46116;SDS011;32591;48.102;11.772;2022-11-21T14:02:08;2.40;;;1.20;;
46116;SDS011;32591;48.102;11.772;2022-11-21T14:05:09;1.80;;;0.85;;
46116;SDS011;32591;48.102;11.772;2022-11-21T14:08:01;3.40;;;0.60;;
46116;SDS011;32591;48.102;11.772;2022-11-21T14:10:39;3.72;;;0.70;;
46116;SDS011;32591;48.102;11.772;2022-11-21T14:13:13;2.72;;;0.73;;
46116;SDS011;32591;48.102;11.772;2022-11-21T14:15:49;0.90;;;0.50;;
46116;SDS011;32591;48.102;11.772;2022-11-21T14:18:30;3.42;;;0.80;;
46116;SDS011;32591;48.102;11.772;2022-11-21T14:20:58;6.00;;;1.05;;
46116;SDS011;32591;48.102;11.772;2022-11-21T14:23:27;2.83;;;0.77;;
46116;SDS011;32591;48.102;11.772;2022-11-21T14:25:58;1.95;;;0.77;;
46116;SDS011;32591;48.102;11.772;2022-11-21T14:28:28;1.58;;;0.60;;
46116;SDS011;32591;48.102;11.772;2022-11-21T14:30:57;2.78;;;0.60;;
46116;SDS011;32591;48.102;11.772;2022-11-21T14:33:27;2.85;;;1.00;;
46116;SDS011;32591;48.102;11.772;2022-11-21T14:36:02;5.05;;;1.23;;
46116;SDS011;32591;48.102;11.772;2022-11-21T14:38:34;2.17;;;0.93;;
46116;SDS011;32591;48.102;11.772;2022-11-21T14:41:21;2.22;;;0.65;;
46116;SDS011;32591;48.102;11.772;2022-11-21T14:46:47;2.70;;;0.93;;
46116;SDS011;32591;48.102;11.772;2022-11-21T14:49:26;1.40;;;1.00;;
46116;SDS011;32591;48.102;11.772;2022-11-21T14:52:00;1.80;;;0.95;;
46116;SDS011;32591;48.102;11.772;2022-11-21T14:54:38;2.92;;;1.08;;
46116;SDS011;32591;48.102;11.772;2022-11-21T14:57:14;3.50;;;1.63;;
46116;SDS011;32591;48.102;11.772;2022-11-21T14:59:47;2.88;;;1.42;;
46116;SDS011;32591;48.102;11.772;2022-11-21T15:02:15;3.25;;;1.05;;
46116;SDS011;32591;48.102;11.772;2022-11-21T15:04:47;2.95;;;1.02;;
46116;SDS011;32591;48.102;11.772;2022-11-21T15:07:21;1.67;;;0.98;;
46116;SDS011;32591;48.102;11.772;2022-11-21T15:09:50;1.27;;;0.65;;
46116;SDS011;32591;48.102;11.772;2022-11-21T15:12:19;1.73;;;1.02;;
46116;SDS011;32591;48.102;11.772;2022-11-21T15:14:53;3.05;;;0.98;;
46116;SDS011;32591;48.102;11.772;2022-11-21T15:17:26;1.38;;;0.80;;
46116;SDS011;32591;48.102;11.772;2022-11-21T15:20:04;3.83;;;1.65;;
46116;SDS011;32591;48.102;11.772;2022-11-21T15:22:42;2.03;;;0.90;;
46116;SDS011;32591;48.102;11.772;2022-11-21T15:25:13;3.88;;;1.20;;
46116;SDS011;32591;48.102;11.772;2022-11-21T15:27:43;3.97;;;1.20;;
46116;SDS011;32591;48.102;11.772;2022-11-21T15:30:21;2.40;;;1.00;;
46116;SDS011;32591;48.102;11.772;2022-11-21T15:32:58;2.42;;;1.38;;
46116;SDS011;32591;48.102;11.772;2022-11-21T15:35:34;5.28;;;1.23;;
46116;SDS011;32591;48.102;11.772;2022-11-21T15:38:21;3.08;;;1.40;;
46116;SDS011;32591;48.102;11.772;2022-11-21T15:40:55;3.75;;;1.65;;
46116;SDS011;32591;48.102;11.772;2022-11-21T15:43:35;3.40;;;1.90;;
46116;SDS011;32591;48.102;11.772;2022-11-21T15:46:12;6.30;;;1.83;;
46116;SDS011;32591;48.102;11.772;2022-11-21T15:48:43;5.10;;;1.95;;
46116;SDS011;32591;48.102;11.772;2022-11-21T15:51:12;4.45;;;1.60;;
46116;SDS011;32591;48.102;11.772;2022-11-21T15:53:40;3.97;;;1.60;;
46116;SDS011;32591;48.102;11.772;2022-11-21T15:56:08;3.90;;;1.75;;
46116;SDS011;32591;48.102;11.772;2022-11-21T15:58:38;5.68;;;2.05;;
46116;SDS011;32591;48.102;11.772;2022-11-21T16:01:09;6.75;;;1.70;;
46116;SDS011;32591;48.102;11.772;2022-11-21T16:03:41;2.92;;;1.60;;
46116;SDS011;32591;48.102;11.772;2022-11-21T16:06:09;3.63;;;2.05;;
46116;SDS011;32591;48.102;11.772;2022-11-21T16:08:38;4.47;;;1.58;;
46116;SDS011;32591;48.102;11.772;2022-11-21T16:11:05;4.45;;;2.00;;
46116;SDS011;32591;48.102;11.772;2022-11-21T16:13:33;6.63;;;2.75;;
46116;SDS011;32591;48.102;11.772;2022-11-21T16:16:00;4.63;;;2.78;;
46116;SDS011;32591;48.102;11.772;2022-11-21T16:18:28;7.15;;;4.05;;
46116;SDS011;32591;48.102;11.772;2022-11-21T16:21:05;9.65;;;4.05;;
46116;SDS011;32591;48.102;11.772;2022-11-21T16:23:35;7.53;;;3.90;;
46116;SDS011;32591;48.102;11.772;2022-11-21T16:26:03;9.85;;;5.25;;
46116;SDS011;32591;48.102;11.772;2022-11-21T16:28:31;5.60;;;3.72;;
46116;SDS011;32591;48.102;11.772;2022-11-21T16:30:59;7.22;;;3.88;;
46116;SDS011;32591;48.102;11.772;2022-11-21T16:33:27;11.50;;;4.00;;
46116;SDS011;32591;48.102;11.772;2022-11-21T16:35:55;7.88;;;3.53;;
46116;SDS011;32591;48.102;11.772;2022-11-21T16:38:22;6.22;;;2.75;;
46116;SDS011;32591;48.102;11.772;2022-11-21T16:40:54;7.55;;;2.80;;
46116;SDS011;32591;48.102;11.772;2022-11-21T16:43:25;4.07;;;2.25;;
46116;SDS011;32591;48.102;11.772;2022-11-21T16:45:53;4.35;;;2.38;;